Details From LEXJ - Santander
To LECO - A Coruna
Flight Number -
Tags generated
Created
Modified
Stats Distance 199 nm / 369 km
Max Altitude 22,400 ft / 6,828 m
Waypoints 3
Social Downloads 6
Likes 0
Share

Download

Looking for another format? Having issues loading an existing format? Contact us
Advertisement - Login to hide

Notes

Basic altitude profile: - Ascent Rate: 2500ft/min - Ascent Speed: 250kts - Cruise Altitude: 35000ft - Cruise Speed: 420kts - Descent Rate: 1500ft/min - Descent Speed: 250kts

Route

LEXJ RATPO LECO

ID Type Via Altitude (ft/m) Position (lat/lon) Dist (leg/tot) Name
O LEXJ APT - 0 / 0 43.42719 / -3.82047 - / 0 nm Santander
RATPO FIX - 22,400 / 6,828 43.31711 / -5.98170 94 / 94 nm
O LECO APT - 0 / 0 43.30226 / -8.37709 104 / 199 nm A Coruna

Altitude Profile

Advertisement - Login to hide

Weather


0- 5 10 15 20 25 30 35+ Temperature / °C

Clouds and Precipitation
Forecast for 2022-08-08 18:00 UTC. Updated 4 hours ago

Ground ~20,000 ft ~40,000 ft Winds

LEXJ

Details ICAO LEXJ (SDR)
Name Seve Ballesteros-Santander
Region Spain
Timezone Europe/Madrid (UTC+2.0)
Stats Elevation 16 ft / 5 m (AMSL)
Location 43.426900° -3.820000°
Runways 1
Magnetic Variation 0.322° W

METAR

LEXJ 081930Z VRB01KT 9999 FEW040 22/18 Q1019

Decode

TAF

TAF LEXJ 081400Z 0815/0915 04012KT CAVOK TX27/0913Z TN19/0904Z BECMG 0818/0821 VRB06KT PROB30 TEMPO 0818/0905 TS FEW050CB BECMG 0911/0913 04012KT

Decode

Departure Runways

ID Width Length Bearing (true/mag) Surface Threshold Overrun Markings Lighting
11 148 ft / 45 m 7,598 ft / 2,316 m 110.20° / 110.52° ASPHALT 0 ft / 0 m 0 ft / 0 m PREC-APP CENTERLINE EDGE THRESHOLD REIL-OMNI
29 148 ft / 45 m 7,598 ft / 2,316 m 290.22° / 290.54° ASPHALT 0 ft / 0 m 0 ft / 0 m PREC-APP CENTERLINE EDGE THRESHOLD SALS REIL-OMNI

LECO

Details ICAO LECO (LCG)
Name A Coruña
Region Spain
Timezone Europe/Madrid (UTC+2.0)
Stats Elevation 330 ft / 101 m (AMSL)
Location 43.300700° -8.378350°
Runways 1
Magnetic Variation 1.769° W

METAR

LECO 081930Z 35006KT 300V050 CAVOK 24/16 Q1017 NOSIG

Decode

TAF

TAF LECO 081400Z 0815/0915 36009KT 9999 FEW040 TX35/0915Z TN17/0904Z PROB30 TEMPO 0815/0818 FEW050TCU PROB30 TEMPO 0905/0907 3000 BR BCFG PROB40 TEMPO 0911/0915 FEW050TCU PROB30 TEMPO 0912/0915 FEW045CB SCT050TCU

Decode

Destination Runways

ID Width Length Bearing (true/mag) Surface Threshold Overrun Markings Lighting
03 148 ft / 45 m 7,671 ft / 2,338 m 30.83° / 32.60° ASPHALT 0 ft / 0 m 95 ft / 29 m PREC-APP CENTERLINE EDGE THRESHOLD REIL-OMNI
21 148 ft / 45 m 7,671 ft / 2,338 m 210.84° / 212.61° ASPHALT 482 ft / 147 m 203 ft / 62 m PREC-APP CENTERLINE EDGE THRESHOLD ALSF-II TDZ REIL-OMNI

Approach Navaids

Runway Type Ident Frequency Range Bearing (true/mag) Slope Elevation
21 DME LCO 109.90 MHz 18 nm / 33 km - - 293 ft / 89 m (AMSL)
21 LOC-ILS LCO 109.90 MHz 18 nm / 33 km 210.84° / 212.61 ° - 330 ft / 101 m (AMSL)
21 GS LCO 109.90 MHz 10 nm / 19 km 210.84° / 212.61 ° 3.00° 330 ft / 101 m (AMSL)

Popular Alternatives